createdAt,value
2022-08-22T00:02:26.819Z,3.08
2022-08-22T00:02:42.590Z,3.67
2022-08-22T00:02:42.952Z,3.95
2022-08-22T00:02:53.827Z,3.75
2022-08-22T00:03:03.718Z,4.28
2022-08-22T00:03:11.356Z,4.10
2022-08-22T00:03:12.013Z,3.60
2022-08-22T00:05:06.342Z,4.10
2022-08-22T00:07:53.844Z,3.53
2022-08-22T00:10:27.887Z,3.80
2022-08-22T00:13:03.847Z,4.18
2022-08-22T00:18:14.010Z,3.72
2022-08-22T00:20:44.731Z,4.07
2022-08-22T00:23:28.702Z,3.92
2022-08-22T00:26:18.443Z,4.20
2022-08-22T00:29:05.068Z,4.03
2022-08-22T00:31:39.911Z,4.30
2022-08-22T00:34:22.802Z,4.40
2022-08-22T00:37:03.642Z,4.07
2022-08-22T00:39:43.269Z,4.22
2022-08-22T00:42:31.908Z,3.67
2022-08-22T00:45:33.695Z,4.20
2022-08-22T00:48:18.288Z,3.83
2022-08-22T00:51:19.214Z,4.57
2022-08-22T00:54:15.877Z,4.50
2022-08-22T00:57:13.685Z,4.00
2022-08-22T00:59:59.067Z,5.03
2022-08-22T01:02:52.885Z,4.13
2022-08-22T01:05:31.113Z,4.28
2022-08-22T01:08:23.529Z,4.72
2022-08-22T01:11:10.386Z,4.40
2022-08-22T01:14:02.178Z,3.13
2022-08-22T01:16:35.108Z,3.90
2022-08-22T01:19:18.184Z,4.00
2022-08-22T01:22:19.374Z,4.05
2022-08-22T01:25:26.111Z,4.88
2022-08-22T01:28:11.460Z,4.10
2022-08-22T01:31:04.912Z,4.60
2022-08-22T01:33:53.583Z,3.60
2022-08-22T01:36:46.519Z,4.18
2022-08-22T01:39:39.033Z,4.22
2022-08-22T01:42:20.839Z,4.03
2022-08-22T01:44:56.635Z,5.22
2022-08-22T01:47:36.601Z,4.93
2022-08-22T01:50:53.089Z,4.53
2022-08-22T01:53:39.420Z,4.22
2022-08-22T01:56:22.603Z,4.43
2022-08-22T01:59:34.494Z,4.85
2022-08-22T02:02:13.224Z,4.80
2022-08-22T02:04:58.995Z,4.97
2022-08-22T02:07:38.834Z,5.30
2022-08-22T02:10:14.630Z,4.55
2022-08-22T02:12:45.002Z,4.63
2022-08-22T02:15:15.051Z,4.57
2022-08-22T02:18:12.210Z,5.28
2022-08-22T02:20:58.721Z,4.72
2022-08-22T02:23:45.967Z,4.70
2022-08-22T02:26:24.306Z,4.05
2022-08-22T02:29:20.323Z,5.18
2022-08-22T02:32:06.717Z,4.78
2022-08-22T02:34:53.205Z,5.20
2022-08-22T02:37:51.041Z,4.70
2022-08-22T02:40:32.140Z,4.38
2022-08-22T02:43:14.710Z,4.65
2022-08-22T02:45:49.127Z,4.80
2022-08-22T02:48:40.351Z,5.10
2022-08-22T02:51:24.357Z,4.82
2022-08-22T02:54:09.661Z,4.43
2022-08-22T02:56:45.396Z,4.80
2022-08-22T02:59:27.627Z,4.95
2022-08-22T03:01:55.886Z,4.90
2022-08-22T03:04:31.208Z,4.35
2022-08-22T03:07:17.465Z,5.13
2022-08-22T03:10:19.573Z,4.85
2022-08-22T03:13:07.403Z,4.47
2022-08-22T03:15:53.033Z,4.38
2022-08-22T03:18:45.275Z,5.10
2022-08-22T03:21:27.766Z,4.47
2022-08-22T03:24:01.506Z,4.60
2022-08-22T03:26:38.860Z,4.85
2022-08-22T03:29:15.684Z,4.47
2022-08-22T03:32:11.921Z,4.65
2022-08-22T03:34:58.054Z,4.20
2022-08-22T03:37:37.711Z,4.78
2022-08-22T03:40:20.028Z,5.22
2022-08-22T03:42:53.267Z,3.97
2022-08-22T03:45:41.559Z,4.00
2022-08-22T03:48:57.330Z,5.00
2022-08-22T03:52:02.065Z,4.30
2022-08-22T03:54:34.942Z,4.45
2022-08-22T03:57:23.873Z,5.18
2022-08-22T04:03:03.912Z,5.60
2022-08-22T04:05:58.813Z,4.18
2022-08-22T04:09:05.936Z,5.28
2022-08-22T04:12:02.453Z,4.85
2022-08-22T04:15:10.768Z,5.25
2022-08-22T04:20:26.564Z,4.85
2022-08-22T04:23:09.734Z,4.80
2022-08-22T04:25:39.357Z,5.30
2022-08-22T04:28:19.386Z,5.13
2022-08-22T04:31:07.284Z,4.85
2022-08-22T04:33:48.007Z,5.63
2022-08-22T04:36:27.522Z,4.80
2022-08-22T04:38:59.006Z,5.10
2022-08-22T04:41:46.636Z,3.17
2022-08-22T04:44:26.033Z,5.25
2022-08-22T04:47:00.027Z,5.60
2022-08-22T04:49:39.110Z,5.25
2022-08-22T04:52:31.914Z,4.43
2022-08-22T04:55:35.913Z,4.93
2022-08-22T04:58:28.599Z,4.65
2022-08-22T05:01:07.818Z,4.85
2022-08-22T05:03:43.061Z,5.18
2022-08-22T05:06:16.277Z,5.18
2022-08-22T05:08:46.198Z,5.43
2022-08-22T05:11:23.117Z,4.80
2022-08-22T05:16:33.441Z,5.35
2022-08-22T05:19:27.052Z,5.18
2022-08-22T05:21:57.284Z,4.90
2022-08-22T05:24:30.465Z,4.97
2022-08-22T05:27:01.108Z,4.35
2022-08-22T05:29:31.041Z,4.15
2022-08-22T05:32:04.750Z,5.05
2022-08-22T05:34:37.703Z,3.78
2022-08-22T05:37:24.582Z,4.63
2022-08-22T05:39:58.438Z,4.95
2022-08-22T05:42:32.187Z,4.13
2022-08-22T05:45:03.078Z,3.72
2022-08-22T05:47:38.062Z,5.43
2022-08-22T05:50:14.691Z,4.30
2022-08-22T05:53:17.832Z,5.60
2022-08-22T05:55:52.662Z,5.05
2022-08-22T05:58:38.798Z,5.07
2022-08-22T06:01:14.773Z,5.30
2022-08-22T06:04:06.875Z,4.53
2022-08-22T06:06:52.551Z,5.07
2022-08-22T06:09:34.666Z,4.93
2022-08-22T06:12:25.125Z,4.30
2022-08-22T06:15:12.006Z,4.93
2022-08-22T06:18:01.196Z,4.78
2022-08-22T06:20:57.865Z,5.40
2022-08-22T06:23:35.153Z,5.40
2022-08-22T06:26:04.244Z,4.65
2022-08-22T06:28:55.138Z,6.18
2022-08-22T06:31:33.071Z,5.82
2022-08-22T06:34:12.100Z,5.28
2022-08-22T06:36:42.484Z,4.85
2022-08-22T06:39:26.497Z,5.20
2022-08-22T06:42:02.959Z,4.63
2022-08-22T06:44:47.161Z,5.07
2022-08-22T06:47:23.521Z,5.38
2022-08-22T06:49:56.517Z,4.88
2022-08-22T06:52:26.044Z,5.45
2022-08-22T06:55:00.402Z,4.15
2022-08-22T06:57:35.288Z,5.50
2022-08-22T07:00:08.411Z,5.22
2022-08-22T07:02:49.982Z,4.38
2022-08-22T07:05:21.365Z,5.15
2022-08-22T07:07:49.571Z,5.85
2022-08-22T07:10:18.185Z,4.63
2022-08-22T07:12:49.022Z,4.72
2022-08-22T07:15:37.643Z,3.70
2022-08-22T07:18:27.399Z,6.22
2022-08-22T07:20:57.785Z,5.72
2022-08-22T07:23:32.040Z,5.70
2022-08-22T07:26:07.928Z,4.28
2022-08-22T07:29:15.860Z,6.18
2022-08-22T07:31:57.784Z,3.78
2022-08-22T07:34:40.670Z,5.32
2022-08-22T07:37:32.737Z,5.32
2022-08-22T07:40:17.446Z,4.53
2022-08-22T07:42:56.675Z,5.68
2022-08-22T07:45:35.284Z,5.88
2022-08-22T07:48:27.318Z,5.05
2022-08-22T07:51:08.466Z,6.07
2022-08-22T07:54:00.630Z,3.80
2022-08-22T07:56:31.623Z,5.00
2022-08-22T07:59:13.026Z,6.00
2022-08-22T08:01:45.816Z,4.20
2022-08-22T08:04:17.387Z,6.22
2022-08-22T08:06:50.941Z,5.60
2022-08-22T08:09:19.725Z,5.45
2022-08-22T08:11:49.339Z,5.68
2022-08-22T08:14:17.026Z,5.50
2022-08-22T08:17:00.881Z,6.43
2022-08-22T08:19:34.509Z,5.20
2022-08-22T08:22:02.590Z,5.90
2022-08-22T08:24:42.062Z,5.95
2022-08-22T08:27:35.687Z,4.90
2022-08-22T08:30:15.441Z,6.43
2022-08-22T08:32:46.294Z,5.97
2022-08-22T08:35:26.218Z,6.38
2022-08-22T08:38:38.807Z,6.10
2022-08-22T08:41:23.949Z,6.15
2022-08-22T08:44:19.004Z,6.25
2022-08-22T08:46:56.033Z,5.93
2022-08-22T08:49:35.174Z,5.28
2022-08-22T08:52:11.940Z,4.93
2022-08-22T08:54:43.469Z,5.03
2022-08-22T08:57:34.014Z,5.22
2022-08-22T09:00:15.096Z,5.20
2022-08-22T09:02:42.571Z,5.57
2022-08-22T09:05:27.970Z,5.55
2022-08-22T09:08:25.662Z,4.20
2022-08-22T09:11:09.900Z,4.57
2022-08-22T09:13:58.321Z,4.43
2022-08-22T09:16:57.121Z,3.60
2022-08-22T09:19:46.608Z,4.25
2022-08-22T09:22:19.782Z,3.65
2022-08-22T09:25:16.550Z,3.30
2022-08-22T09:28:02.917Z,3.45
2022-08-22T09:30:45.337Z,3.35
2022-08-22T09:33:24.800Z,3.55
2022-08-22T09:36:32.175Z,3.97
2022-08-22T09:39:03.849Z,3.60
2022-08-22T09:41:46.349Z,4.00
2022-08-22T09:44:47.785Z,4.00
2022-08-22T09:47:35.153Z,4.13
2022-08-22T09:50:17.584Z,4.00
2022-08-22T09:53:09.842Z,4.25
2022-08-22T09:55:47.624Z,4.32
2022-08-22T09:58:27.998Z,3.92
2022-08-22T10:00:59.705Z,3.72
2022-08-22T10:03:56.379Z,4.00
2022-08-22T10:06:36.175Z,4.00
2022-08-22T10:09:14.690Z,3.65
2022-08-22T10:11:49.859Z,3.78
2022-08-22T10:14:22.284Z,3.70
2022-08-22T10:17:12.796Z,3.95
2022-08-22T10:19:47.683Z,4.03
2022-08-22T10:22:33.055Z,3.30
2022-08-22T10:25:07.664Z,3.97
2022-08-22T10:27:46.622Z,3.40
2022-08-22T10:30:20.478Z,3.95
2022-08-22T10:32:47.835Z,3.65
2022-08-22T10:35:33.841Z,4.07
2022-08-22T10:38:19.159Z,4.20
2022-08-22T10:41:11.333Z,4.30
2022-08-22T10:44:01.370Z,4.18
2022-08-22T10:46:39.036Z,4.18
2022-08-22T10:49:32.449Z,4.25
2022-08-22T10:52:21.535Z,4.03
2022-08-22T10:54:56.418Z,4.32
2022-08-22T10:57:48.337Z,4.45
2022-08-22T11:00:31.364Z,4.00
2022-08-22T11:03:25.397Z,3.47
2022-08-22T11:06:23.698Z,4.00
2022-08-22T11:09:25.598Z,4.35
2022-08-22T11:12:21.335Z,3.17
2022-08-22T11:15:28.253Z,4.05
2022-08-22T11:18:20.540Z,3.17
2022-08-22T11:20:56.674Z,4.10
2022-08-22T11:23:29.850Z,3.60
2022-08-22T11:26:33.760Z,3.80
2022-08-22T11:29:15.176Z,3.58
2022-08-22T11:32:05.945Z,4.50
2022-08-22T11:34:44.700Z,4.10
2022-08-22T11:37:54.830Z,3.42
2022-08-22T11:40:37.124Z,3.63
2022-08-22T11:43:39.266Z,3.92
2022-08-22T11:46:27.218Z,4.07
2022-08-22T11:52:10.095Z,3.47
2022-08-22T11:54:42.999Z,3.45
2022-08-22T11:57:16.231Z,3.92
2022-08-22T11:59:43.353Z,3.53
2022-08-22T12:02:51.875Z,3.30
2022-08-22T12:05:24.696Z,3.60
2022-08-22T12:08:03.931Z,3.25
2022-08-22T12:10:35.902Z,3.63
2022-08-22T12:13:37.428Z,3.50
2022-08-22T12:16:20.985Z,4.25
2022-08-22T12:19:26.415Z,3.80
2022-08-22T12:22:13.088Z,2.40
2022-08-22T12:25:03.662Z,3.60
2022-08-22T12:28:04.265Z,3.60
2022-08-22T12:30:39.435Z,3.88
2022-08-22T12:33:22.927Z,4.05
2022-08-22T12:35:53.912Z,3.30
2022-08-22T12:38:39.555Z,3.70
2022-08-22T12:49:15.982Z,3.90
2022-08-22T12:52:20.025Z,3.33
2022-08-22T12:54:54.538Z,2.60
2022-08-22T12:57:36.419Z,2.97
2022-08-22T13:00:32.071Z,3.15
2022-08-22T13:03:11.853Z,2.97
2022-08-22T13:05:45.036Z,3.00
2022-08-22T13:08:29.748Z,3.17
2022-08-22T13:11:23.693Z,3.22
2022-08-22T13:13:57.175Z,3.28
2022-08-22T13:16:33.869Z,3.92
2022-08-22T13:19:26.806Z,3.53
2022-08-22T13:22:10.103Z,4.50
2022-08-22T13:24:52.383Z,3.70
2022-08-22T13:27:32.486Z,3.85
2022-08-22T13:30:06.217Z,3.55
2022-08-22T13:32:44.453Z,3.40
2022-08-22T13:35:24.727Z,3.42
2022-08-22T13:37:58.496Z,3.00
2022-08-22T13:43:24.255Z,3.38
2022-08-22T13:46:23.460Z,3.42
2022-08-22T13:49:00.633Z,3.38
2022-08-22T13:51:51.301Z,3.15
2022-08-22T13:54:36.441Z,3.47
2022-08-22T13:57:30.877Z,3.28
2022-08-22T14:00:28.497Z,3.25
2022-08-22T14:03:12.255Z,3.40
2022-08-22T14:05:47.592Z,3.60
2022-08-22T14:08:22.261Z,3.10
2022-08-22T14:11:06.890Z,2.00
2022-08-22T14:13:56.108Z,3.25
2022-08-22T14:16:52.815Z,3.75
2022-08-22T14:19:35.077Z,3.47
2022-08-22T14:22:31.931Z,3.28
2022-08-22T14:27:41.086Z,3.50
2022-08-22T14:30:14.633Z,3.20
2022-08-22T14:33:13.894Z,3.90
2022-08-22T14:35:45.456Z,3.40
2022-08-22T14:38:35.933Z,4.00
2022-08-22T14:41:52.383Z,3.60
2022-08-22T14:44:32.590Z,3.60
2022-08-22T14:47:04.827Z,3.55
2022-08-22T14:49:58.827Z,3.85
2022-08-22T14:52:45.817Z,3.50
2022-08-22T14:55:27.066Z,3.85
2022-08-22T14:58:05.963Z,3.67
2022-08-22T15:00:38.357Z,3.78
2022-08-22T15:03:21.297Z,3.95
2022-08-22T15:05:59.354Z,4.10
2022-08-22T15:08:50.375Z,3.97
2022-08-22T15:11:27.274Z,3.80
2022-08-22T15:14:12.670Z,3.55
2022-08-22T15:19:46.985Z,3.78
2022-08-22T15:22:16.528Z,3.80
2022-08-22T15:25:02.404Z,3.67
2022-08-22T15:27:31.557Z,4.35
2022-08-22T15:30:04.630Z,3.38
2022-08-22T15:32:41.747Z,3.70
2022-08-22T15:35:17.729Z,4.18
2022-08-22T15:38:01.662Z,3.80
2022-08-22T15:40:44.260Z,3.58
2022-08-22T15:43:22.413Z,3.80
2022-08-22T15:46:09.941Z,3.85
2022-08-22T15:49:00.213Z,2.90
2022-08-22T15:51:39.192Z,3.50
2022-08-22T15:54:24.604Z,3.50
2022-08-22T15:56:52.770Z,3.08
2022-08-22T15:59:25.609Z,3.13
2022-08-22T16:01:56.611Z,3.20
2022-08-22T16:04:43.420Z,3.10
2022-08-22T16:07:25.160Z,3.47
2022-08-22T16:12:44.381Z,3.50
2022-08-22T16:15:56.571Z,3.20
2022-08-22T16:18:45.143Z,4.00
2022-08-22T16:23:46.759Z,3.65
2022-08-22T16:26:16.686Z,3.55
2022-08-22T16:28:58.568Z,3.00
2022-08-22T16:31:56.804Z,3.33
2022-08-22T16:34:42.588Z,3.35
2022-08-22T16:37:12.161Z,3.30
2022-08-22T16:39:43.576Z,3.40
2022-08-22T16:42:13.614Z,3.33
2022-08-22T16:45:06.054Z,3.35
2022-08-22T16:47:32.837Z,2.92
2022-08-22T16:50:09.168Z,3.10
2022-08-22T16:52:51.930Z,3.17
2022-08-22T16:55:30.857Z,3.85
2022-08-22T16:58:06.934Z,3.10
2022-08-22T17:00:37.062Z,2.78
2022-08-22T17:03:24.179Z,3.17
2022-08-22T17:06:12.449Z,2.30
2022-08-22T17:08:48.430Z,3.13
2022-08-22T17:11:37.504Z,2.60
2022-08-22T17:14:34.887Z,2.58
2022-08-22T17:17:20.389Z,2.90
2022-08-22T17:20:09.207Z,2.88
2022-08-22T17:22:52.227Z,2.72
2022-08-22T17:25:27.149Z,2.70
2022-08-22T17:28:03.561Z,2.67
2022-08-22T17:30:45.755Z,2.90
2022-08-22T17:33:51.242Z,2.85
2022-08-22T17:36:27.921Z,3.00
2022-08-22T17:39:24.923Z,2.97
2022-08-22T17:42:26.615Z,2.40
2022-08-22T17:45:04.379Z,2.72
2022-08-22T17:47:46.901Z,2.70
2022-08-22T17:50:21.216Z,2.83
2022-08-22T17:52:57.369Z,2.55
2022-08-22T17:55:31.861Z,2.63
2022-08-22T17:58:05.689Z,2.85
2022-08-22T18:00:40.685Z,2.58
2022-08-22T18:03:31.893Z,2.60
2022-08-22T18:06:11.216Z,2.63
2022-08-22T18:09:15.632Z,3.10
2022-08-22T18:11:55.309Z,3.10
2022-08-22T18:14:31.050Z,2.78
2022-08-22T18:17:01.132Z,3.50
2022-08-22T18:19:48.610Z,2.90
2022-08-22T18:22:22.177Z,2.90
2022-08-22T18:25:04.796Z,2.75
2022-08-22T18:27:46.289Z,2.88
2022-08-22T18:30:31.415Z,3.40
2022-08-22T18:33:14.830Z,3.05
2022-08-22T18:36:18.215Z,3.03
2022-08-22T18:38:54.329Z,3.13
2022-08-22T18:44:01.168Z,2.75
2022-08-22T18:46:41.143Z,2.83
2022-08-22T18:49:22.180Z,2.72
2022-08-22T18:52:16.136Z,3.35
2022-08-22T18:55:08.283Z,3.10
2022-08-22T18:57:54.001Z,2.75
2022-08-22T19:00:40.242Z,3.17
2022-08-22T19:03:31.903Z,3.08
2022-08-22T19:06:38.570Z,3.85
2022-08-22T19:09:34.225Z,3.20
2022-08-22T19:12:47.783Z,3.42
2022-08-22T19:15:39.952Z,3.30
2022-08-22T19:18:32.008Z,3.10
2022-08-22T19:21:39.980Z,3.20
2022-08-22T19:24:13.301Z,3.45
2022-08-22T19:26:48.218Z,2.92
2022-08-22T19:29:42.598Z,3.60
2022-08-22T19:32:47.510Z,3.22
2022-08-22T19:35:24.130Z,3.20
2022-08-22T19:37:53.080Z,3.30
2022-08-22T19:40:44.933Z,3.45
2022-08-22T19:43:22.745Z,3.60
2022-08-22T19:45:51.662Z,3.53
2022-08-22T19:48:27.368Z,3.40
2022-08-22T19:54:16.225Z,3.30
2022-08-22T19:56:52.292Z,3.60
2022-08-22T20:02:26.812Z,3.72
2022-08-22T20:05:17.126Z,3.67
2022-08-22T20:07:58.462Z,3.80
2022-08-22T20:10:35.770Z,3.92
2022-08-22T20:13:08.951Z,4.03
2022-08-22T20:16:05.948Z,3.50
2022-08-22T20:19:06.004Z,4.03
2022-08-22T20:22:01.254Z,4.10
2022-08-22T20:25:05.248Z,4.13
2022-08-22T20:27:38.310Z,3.63
2022-08-22T20:30:08.865Z,3.83
2022-08-22T20:32:43.553Z,4.07
2022-08-22T20:35:22.392Z,4.28
2022-08-22T20:38:06.657Z,4.00
2022-08-22T20:40:56.058Z,3.85
2022-08-22T20:44:12.423Z,3.60
2022-08-22T20:46:58.672Z,3.80
2022-08-22T20:49:32.862Z,3.70
2022-08-22T20:52:03.969Z,3.80
2022-08-22T20:54:39.688Z,4.05
2022-08-22T20:57:20.231Z,3.85
2022-08-22T21:00:19.468Z,3.60
2022-08-22T21:03:11.339Z,4.22
2022-08-22T21:05:43.071Z,3.72
2022-08-22T21:08:26.277Z,4.10
2022-08-22T21:11:17.371Z,3.90
2022-08-22T21:13:44.315Z,4.38
2022-08-22T21:16:15.667Z,3.83
2022-08-22T21:18:48.927Z,3.65
2022-08-22T21:21:22.343Z,3.83
2022-08-22T21:23:52.055Z,3.28
2022-08-22T21:26:31.403Z,4.25
2022-08-22T21:29:07.352Z,4.28
2022-08-22T21:31:47.238Z,4.28
2022-08-22T21:34:27.648Z,4.10
2022-08-22T21:36:59.578Z,6.07
2022-08-22T21:39:42.513Z,4.05
2022-08-22T21:42:11.840Z,4.10
2022-08-22T21:47:30.723Z,4.80
2022-08-22T21:50:23.292Z,4.72
2022-08-22T21:52:56.283Z,4.70
2022-08-22T21:55:43.086Z,4.45
2022-08-22T21:58:32.610Z,4.50
2022-08-22T22:01:30.352Z,4.85
2022-08-22T22:03:59.531Z,5.03
2022-08-22T22:06:26.976Z,4.65
2022-08-22T22:08:54.572Z,4.70
2022-08-22T22:11:21.504Z,5.00
2022-08-22T22:13:49.024Z,5.32
2022-08-22T22:16:22.880Z,4.70
2022-08-22T22:18:49.823Z,5.05
2022-08-22T22:21:16.913Z,5.07
2022-08-22T22:23:43.813Z,4.43
2022-08-22T22:26:11.022Z,5.50
2022-08-22T22:28:47.354Z,5.22
2022-08-22T22:31:16.429Z,5.80
2022-08-22T22:33:43.433Z,5.53
2022-08-22T22:36:16.455Z,5.90
2022-08-22T22:38:43.749Z,5.82
2022-08-22T22:41:11.530Z,5.28
2022-08-22T22:43:38.556Z,5.20
2022-08-22T22:46:08.692Z,5.50
2022-08-22T22:48:35.569Z,4.93
2022-08-22T22:51:10.916Z,5.25
2022-08-22T22:53:42.620Z,5.20
2022-08-22T22:56:13.601Z,5.78
2022-08-22T22:58:40.998Z,6.10
2022-08-22T23:01:21.811Z,5.57
2022-08-22T23:03:54.344Z,4.72
2022-08-22T23:06:23.683Z,6.30
2022-08-22T23:11:26.436Z,6.05
2022-08-22T23:16:26.840Z,5.70
2022-08-22T23:18:54.105Z,5.07
2022-08-22T23:21:29.698Z,6.70
2022-08-22T23:23:59.398Z,5.40
2022-08-22T23:26:28.251Z,5.85
2022-08-22T23:28:56.197Z,5.75
2022-08-22T23:31:32.718Z,6.28
2022-08-22T23:34:07.241Z,5.63
2022-08-22T23:36:34.897Z,5.30
2022-08-22T23:39:03.516Z,5.93
2022-08-22T23:41:30.427Z,6.10
2022-08-22T23:43:57.415Z,6.07
2022-08-22T23:46:27.675Z,6.40
2022-08-22T23:48:58.157Z,5.93
2022-08-22T23:51:29.220Z,6.40
2022-08-22T23:53:57.909Z,6.32
2022-08-22T23:57:03.189Z,6.60
2022-08-22T23:59:46.422Z,6.10
